createdAt,value
2022-11-16T00:00:35.122Z,70.85
2022-11-16T00:03:05.377Z,80.15
2022-11-16T00:05:36.665Z,84.07
2022-11-16T00:08:06.827Z,84.68
2022-11-16T00:10:38.048Z,76.15
2022-11-16T00:13:11.294Z,78.53
2022-11-16T00:15:40.041Z,67.53
2022-11-16T00:18:10.727Z,75.10
2022-11-16T00:20:46.200Z,83.03
2022-11-16T00:23:16.050Z,71.70
2022-11-16T00:25:46.241Z,72.65
2022-11-16T00:28:17.145Z,67.57
2022-11-16T00:30:48.112Z,75.03
2022-11-16T00:33:21.539Z,68.28
2022-11-16T00:35:52.590Z,67.00
2022-11-16T00:38:22.839Z,58.88
2022-11-16T00:40:59.096Z,68.45
2022-11-16T00:43:31.902Z,66.55
2022-11-16T00:46:09.654Z,57.70
2022-11-16T00:48:44.487Z,65.72
2022-11-16T00:51:14.619Z,55.28
2022-11-16T00:53:44.764Z,57.33
2022-11-16T00:56:14.261Z,59.58
2022-11-16T00:58:43.171Z,60.30
2022-11-16T01:01:15.602Z,66.35
2022-11-16T01:03:44.792Z,60.03
2022-11-16T01:06:17.596Z,59.88
2022-11-16T01:08:51.355Z,60.65
2022-11-16T01:11:53.523Z,62.35
2022-11-16T01:14:22.491Z,48.85
2022-11-16T01:16:57.899Z,53.22
2022-11-16T01:19:26.955Z,48.90
2022-11-16T01:21:58.939Z,51.03
2022-11-16T01:24:28.555Z,41.40
2022-11-16T01:26:58.833Z,46.92
2022-11-16T01:29:28.529Z,46.67
2022-11-16T01:31:58.553Z,42.80
2022-11-16T01:34:28.503Z,42.38
2022-11-16T01:36:59.694Z,41.65
2022-11-16T01:42:26.675Z,40.00
2022-11-16T01:45:10.051Z,42.47
2022-11-16T01:50:39.773Z,40.28
2022-11-16T01:53:14.216Z,44.35
2022-11-16T01:55:46.935Z,43.95
2022-11-16T01:58:20.313Z,41.88
2022-11-16T02:00:54.814Z,47.40
2022-11-16T02:03:29.052Z,42.83
2022-11-16T02:06:16.898Z,45.40
2022-11-16T02:09:19.051Z,47.75
2022-11-16T02:12:08.469Z,40.00
2022-11-16T02:14:57.809Z,45.30
2022-11-16T02:17:39.828Z,40.75
2022-11-16T02:20:42.471Z,41.00
2022-11-16T02:23:29.491Z,43.58
2022-11-16T02:26:18.203Z,34.47
2022-11-16T02:28:56.298Z,43.00
2022-11-16T02:34:33.473Z,34.70
2022-11-16T02:37:06.712Z,33.03
2022-11-16T02:39:38.711Z,38.35
2022-11-16T02:42:15.430Z,39.72
2022-11-16T02:44:47.198Z,46.05
2022-11-16T02:47:27.079Z,42.05
2022-11-16T02:49:59.662Z,44.75
2022-11-16T02:52:34.288Z,43.83
2022-11-16T02:55:03.694Z,35.75
2022-11-16T02:57:45.564Z,40.33
2022-11-16T03:00:21.797Z,37.20
2022-11-16T03:03:03.844Z,35.72
2022-11-16T03:05:37.977Z,38.15
2022-11-16T03:08:18.329Z,40.03
2022-11-16T03:11:12.991Z,40.95
2022-11-16T03:13:44.820Z,35.58
2022-11-16T03:16:18.738Z,33.75
2022-11-16T03:18:52.485Z,35.60
2022-11-16T03:21:28.432Z,38.50
2022-11-16T03:23:57.570Z,34.88
2022-11-16T03:26:33.532Z,34.80
2022-11-16T03:29:09.627Z,37.30
2022-11-16T03:31:51.623Z,33.65
2022-11-16T03:34:26.909Z,31.70
2022-11-16T03:36:58.224Z,32.58
2022-11-16T03:39:44.998Z,28.73
2022-11-16T03:42:15.282Z,28.08
2022-11-16T03:44:58.531Z,31.30
2022-11-16T03:47:27.729Z,32.03
2022-11-16T03:49:57.713Z,31.45
2022-11-16T03:52:26.989Z,37.30
2022-11-16T03:54:55.651Z,36.40
2022-11-16T03:57:23.989Z,35.42
2022-11-16T03:59:53.038Z,34.53
2022-11-16T04:02:21.532Z,33.08
2022-11-16T04:05:07.235Z,30.67
2022-11-16T04:07:54.887Z,31.52
2022-11-16T04:10:45.977Z,35.50
2022-11-16T04:13:34.132Z,33.28
2022-11-16T04:16:20.360Z,34.58
2022-11-16T04:19:06.413Z,36.53
2022-11-16T04:21:56.181Z,35.35
2022-11-16T04:24:30.146Z,39.10
2022-11-16T04:27:19.800Z,36.78
2022-11-16T04:29:49.148Z,42.30
2022-11-16T04:32:37.673Z,38.50
2022-11-16T04:35:23.979Z,40.33
2022-11-16T04:37:54.797Z,39.60
2022-11-16T04:40:29.177Z,35.70
2022-11-16T04:42:59.710Z,36.65
2022-11-16T04:45:47.643Z,33.05
2022-11-16T04:48:18.521Z,33.63
2022-11-16T04:50:49.471Z,39.67
2022-11-16T04:53:18.223Z,40.25
2022-11-16T04:55:50.503Z,35.67
2022-11-16T04:58:19.706Z,34.47
2022-11-16T05:00:48.352Z,43.20
2022-11-16T05:03:17.878Z,43.47
2022-11-16T05:05:46.483Z,41.97
2022-11-16T05:08:15.978Z,43.13
2022-11-16T05:10:44.314Z,44.75
2022-11-16T05:13:14.131Z,42.92
2022-11-16T05:15:45.983Z,47.63
2022-11-16T05:18:14.426Z,40.45
2022-11-16T05:21:00.070Z,37.28
2022-11-16T05:23:45.704Z,39.70
2022-11-16T05:26:14.124Z,44.80
2022-11-16T05:28:44.002Z,40.85
2022-11-16T05:31:14.130Z,37.72
2022-11-16T05:33:42.379Z,41.28
2022-11-16T05:36:12.398Z,46.90
2022-11-16T05:38:41.271Z,42.70
2022-11-16T05:41:09.543Z,50.55
2022-11-16T05:43:38.414Z,41.55
2022-11-16T05:46:08.338Z,42.28
2022-11-16T05:48:37.847Z,44.20
2022-11-16T05:51:08.069Z,42.10
2022-11-16T05:53:36.808Z,48.33
2022-11-16T05:56:05.365Z,42.10
2022-11-16T05:58:34.862Z,40.08
2022-11-16T06:01:03.701Z,45.60
2022-11-16T06:03:35.934Z,46.92
2022-11-16T06:06:04.940Z,50.63
2022-11-16T06:08:34.793Z,40.28
2022-11-16T06:11:04.175Z,49.60
2022-11-16T06:13:34.799Z,50.40
2022-11-16T06:16:06.139Z,49.55
2022-11-16T06:18:39.592Z,41.60
2022-11-16T06:21:09.990Z,44.13
2022-11-16T06:23:38.394Z,51.28
2022-11-16T06:26:08.999Z,47.13
2022-11-16T06:28:38.305Z,44.50
2022-11-16T06:31:09.786Z,48.60
2022-11-16T06:33:39.611Z,43.47
2022-11-16T06:36:08.790Z,49.38
2022-11-16T06:38:37.887Z,45.80
2022-11-16T06:41:07.132Z,45.28
2022-11-16T06:46:28.940Z,42.10
2022-11-16T06:48:59.817Z,37.22
2022-11-16T06:51:28.643Z,51.88
2022-11-16T06:56:49.472Z,39.35
2022-11-16T06:59:20.076Z,41.28
2022-11-16T07:01:48.499Z,46.88
2022-11-16T07:04:18.670Z,43.88
2022-11-16T07:06:51.897Z,43.67
2022-11-16T07:09:20.490Z,51.67
2022-11-16T07:11:52.009Z,51.80
2022-11-16T07:14:20.928Z,48.55
2022-11-16T07:16:50.974Z,47.20
2022-11-16T07:19:23.338Z,54.17
2022-11-16T07:21:51.637Z,53.22
2022-11-16T07:24:20.227Z,47.80
2022-11-16T07:26:48.493Z,52.53
2022-11-16T07:29:16.845Z,52.47
2022-11-16T07:31:45.935Z,56.97
2022-11-16T07:34:14.390Z,56.33
2022-11-16T07:36:48.109Z,57.70
2022-11-16T07:39:16.484Z,52.03
2022-11-16T07:41:46.913Z,54.53
2022-11-16T07:44:17.147Z,55.55
2022-11-16T07:46:53.448Z,61.10
2022-11-16T07:49:24.461Z,53.00
2022-11-16T07:51:54.877Z,54.22
2022-11-16T07:54:23.218Z,55.30
2022-11-16T07:56:53.149Z,53.80
2022-11-16T07:59:22.116Z,56.38
2022-11-16T08:01:50.806Z,58.53
2022-11-16T08:04:20.145Z,56.25
2022-11-16T08:06:50.988Z,55.28
2022-11-16T08:09:22.428Z,54.25
2022-11-16T08:11:51.428Z,54.70
2022-11-16T08:14:22.768Z,46.50
2022-11-16T08:16:51.135Z,47.55
2022-11-16T08:19:19.830Z,59.08
2022-11-16T08:21:48.058Z,46.13
2022-11-16T08:24:16.884Z,47.10
2022-11-16T08:26:46.795Z,47.63
2022-11-16T08:29:17.782Z,49.58
2022-11-16T08:31:49.224Z,50.05
2022-11-16T08:34:20.382Z,52.67
2022-11-16T08:36:48.638Z,54.72
2022-11-16T08:39:19.888Z,50.30
2022-11-16T08:41:50.744Z,69.13
2022-11-16T08:44:21.800Z,73.65
2022-11-16T08:46:50.066Z,79.72
2022-11-16T08:49:19.758Z,63.60
2022-11-16T08:51:48.082Z,73.55
2022-11-16T08:54:17.532Z,71.72
2022-11-16T08:56:51.813Z,74.47
2022-11-16T08:59:24.718Z,81.65
2022-11-16T09:01:57.695Z,82.28
2022-11-16T09:04:26.424Z,82.18
2022-11-16T09:06:56.881Z,90.18
2022-11-16T09:09:25.369Z,82.82
2022-11-16T09:11:58.139Z,85.63
2022-11-16T09:14:31.889Z,90.43
2022-11-16T09:17:04.403Z,85.15
2022-11-16T09:19:33.592Z,82.85
2022-11-16T09:22:14.629Z,90.55
2022-11-16T09:24:43.008Z,87.38
2022-11-16T09:27:14.327Z,85.28
2022-11-16T09:29:54.982Z,81.65
2022-11-16T09:32:24.546Z,99.13
2022-11-16T09:34:53.869Z,80.85
2022-11-16T09:37:24.156Z,74.95
2022-11-16T09:39:53.139Z,84.85
2022-11-16T09:42:43.966Z,77.60
2022-11-16T09:45:25.287Z,79.07
2022-11-16T09:47:57.719Z,73.80
2022-11-16T09:50:39.634Z,83.82
2022-11-16T09:53:23.242Z,77.35
2022-11-16T09:55:53.406Z,79.80
2022-11-16T09:58:26.831Z,90.57
2022-11-16T10:01:01.049Z,83.35
2022-11-16T10:03:33.783Z,61.83
2022-11-16T10:06:06.946Z,60.42
2022-11-16T10:08:45.527Z,50.05
2022-11-16T10:15:09.578Z,33.95
2022-11-16T10:21:27.759Z,65.68
2022-11-16T10:24:15.663Z,73.70
2022-11-16T10:26:53.350Z,65.47
2022-11-16T10:29:42.560Z,76.57
2022-11-16T10:32:26.840Z,74.32
2022-11-16T10:35:04.120Z,85.18
2022-11-16T10:37:35.813Z,89.63
2022-11-16T10:40:21.618Z,87.15
2022-11-16T10:42:58.945Z,83.88
2022-11-16T10:45:36.273Z,83.20
2022-11-16T10:48:17.870Z,82.03
2022-11-16T10:50:50.734Z,89.38
2022-11-16T10:53:40.971Z,79.57
2022-11-16T10:56:22.628Z,91.53
2022-11-16T10:58:56.163Z,80.32
2022-11-16T11:04:32.857Z,78.45
2022-11-16T11:07:24.826Z,84.85
2022-11-16T11:09:54.766Z,95.38
2022-11-16T11:12:40.715Z,84.68
2022-11-16T11:15:27.325Z,84.28
2022-11-16T11:18:17.782Z,82.57
2022-11-16T11:20:48.655Z,78.53
2022-11-16T11:23:21.437Z,85.85
2022-11-16T11:26:01.624Z,85.32
2022-11-16T11:28:32.413Z,79.55
2022-11-16T11:31:03.784Z,83.35
2022-11-16T11:33:36.243Z,91.07
2022-11-16T11:36:08.814Z,88.03
2022-11-16T11:38:59.039Z,91.13
2022-11-16T11:41:34.446Z,78.32
2022-11-16T11:44:07.065Z,85.68
2022-11-16T11:47:28.551Z,92.07
2022-11-16T11:49:36.119Z,115.30
2022-11-16T11:52:12.979Z,116.65
2022-11-16T11:54:47.905Z,122.60
2022-11-16T11:57:20.886Z,114.32
2022-11-16T11:59:50.158Z,126.68
2022-11-16T12:02:30.755Z,111.43
2022-11-16T12:05:25.587Z,110.20
2022-11-16T12:08:12.552Z,106.75
2022-11-16T12:10:53.789Z,100.25
2022-11-16T12:13:53.349Z,107.15
2022-11-16T12:16:30.003Z,112.22
2022-11-16T12:19:14.692Z,108.25
2022-11-16T12:22:00.819Z,119.50
2022-11-16T12:24:50.523Z,114.72
2022-11-16T12:27:31.399Z,117.78
2022-11-16T12:30:08.780Z,112.47
2022-11-16T12:33:04.002Z,106.10
2022-11-16T12:35:49.835Z,105.68
2022-11-16T12:38:52.616Z,104.25
2022-11-16T12:41:43.948Z,96.25
2022-11-16T12:44:18.721Z,84.80
2022-11-16T12:46:55.682Z,85.25
2022-11-16T12:50:09.172Z,91.30
2022-11-16T12:53:05.715Z,87.82
2022-11-16T12:55:42.654Z,93.80
2022-11-16T12:58:22.205Z,76.90
2022-11-16T13:01:12.196Z,82.38
2022-11-16T13:03:47.112Z,78.63
2022-11-16T13:06:21.276Z,80.68
2022-11-16T13:08:57.343Z,88.15
2022-11-16T13:11:29.162Z,83.75
2022-11-16T13:14:02.152Z,73.70
2022-11-16T13:16:33.017Z,72.72
2022-11-16T13:19:05.320Z,73.53
2022-11-16T13:21:46.023Z,73.32
2022-11-16T13:24:26.922Z,76.43
2022-11-16T13:27:03.204Z,66.65
2022-11-16T13:29:38.207Z,71.25
2022-11-16T13:32:20.056Z,67.05
2022-11-16T13:34:49.983Z,68.65
2022-11-16T13:37:45.628Z,65.60
2022-11-16T13:40:30.387Z,64.82
2022-11-16T13:43:22.924Z,63.58
2022-11-16T13:45:58.667Z,69.75
2022-11-16T13:48:33.578Z,63.10
2022-11-16T13:51:07.586Z,57.75
2022-11-16T13:56:29.570Z,64.07
2022-11-16T13:59:00.226Z,60.25
2022-11-16T14:01:58.781Z,55.35
2022-11-16T14:04:59.953Z,61.65
2022-11-16T14:07:40.552Z,59.10
2022-11-16T14:10:09.279Z,54.97
2022-11-16T14:12:59.249Z,54.88
2022-11-16T14:15:33.723Z,59.17
2022-11-16T14:18:35.289Z,62.35
2022-11-16T14:21:13.558Z,57.15
2022-11-16T14:24:08.403Z,55.67
2022-11-16T14:26:48.610Z,56.70
2022-11-16T14:29:36.772Z,57.33
2022-11-16T14:32:18.690Z,58.58
2022-11-16T14:34:49.827Z,49.42
2022-11-16T14:37:33.577Z,60.97
2022-11-16T14:40:06.021Z,56.65
2022-11-16T14:43:01.584Z,51.85
2022-11-16T14:45:29.289Z,59.67
2022-11-16T14:48:04.068Z,71.85
2022-11-16T14:50:38.055Z,65.22
2022-11-16T14:53:16.799Z,55.13
2022-11-16T14:55:46.326Z,59.30
2022-11-16T14:58:20.452Z,58.65
2022-11-16T15:00:57.005Z,58.03
2022-11-16T15:03:27.530Z,57.05
2022-11-16T15:05:59.320Z,61.63
2022-11-16T15:08:34.775Z,49.15
2022-11-16T15:11:03.387Z,47.33
2022-11-16T15:13:32.147Z,57.97
2022-11-16T15:16:11.784Z,58.97
2022-11-16T15:18:40.121Z,68.50
2022-11-16T15:21:23.318Z,57.70
2022-11-16T15:24:23.410Z,63.05
2022-11-16T15:26:42.886Z,49.65
2022-11-16T15:29:18.859Z,46.38
2022-11-16T15:31:52.266Z,52.80
2022-11-16T15:34:23.700Z,49.13
2022-11-16T15:36:56.240Z,42.47
2022-11-16T15:39:30.186Z,39.17
2022-11-16T15:42:03.495Z,42.05
2022-11-16T15:44:34.319Z,37.67
2022-11-16T15:47:05.294Z,32.80
2022-11-16T15:49:37.216Z,29.80
2022-11-16T15:52:06.335Z,27.42
2022-11-16T18:18:24.353Z,13.88
2022-11-16T18:21:20.707Z,11.00
2022-11-16T18:23:53.451Z,12.80
2022-11-16T19:56:05.190Z,10.77
2022-11-16T19:59:30.934Z,13.65
